createdAt,value
2017-06-04T00:01:01.381Z,1009.4
2017-06-04T00:02:04.191Z,1009.3
2017-06-04T00:03:06.994Z,1009.4
2017-06-04T00:04:09.797Z,1009.3
2017-06-04T00:06:15.262Z,1009.3
2017-06-04T00:07:18.064Z,1009.3
2017-06-04T00:08:20.870Z,1009.3
2017-06-04T00:10:26.588Z,1009.3
2017-06-04T00:11:29.644Z,1009.3
2017-06-04T00:12:31.825Z,1009.3
2017-06-04T00:13:34.630Z,1009.3
2017-06-04T00:14:37.458Z,1009.3
2017-06-04T00:16:43.477Z,1009.2
2017-06-04T00:20:54.516Z,1009.1
2017-06-04T00:21:57.624Z,1009.1
2017-06-04T00:22:59.922Z,1009.1
2017-06-04T00:25:05.708Z,1009.2
2017-06-04T00:28:13.966Z,1009.2
2017-06-04T00:29:16.770Z,1009.1
2017-06-04T00:30:19.575Z,1009.1
2017-06-04T00:31:22.382Z,1009.1
2017-06-04T00:33:28.398Z,1009.2
2017-06-04T00:34:30.697Z,1009.2
2017-06-04T00:35:33.503Z,1009.3
2017-06-04T00:37:39.219Z,1009.2
2017-06-04T00:39:45.190Z,1009.2
2017-06-04T00:40:47.488Z,1009.3
2017-06-04T00:42:53.201Z,1009.3
2017-06-04T00:43:56.002Z,1009.3
2017-06-04T00:44:58.996Z,1009.4
2017-06-04T00:46:01.684Z,1009.4
2017-06-04T00:49:09.696Z,1009.3
2017-06-04T00:50:12.800Z,1009.3
2017-06-04T00:52:18.020Z,1009.3
2017-06-04T00:53:20.825Z,1009.3
2017-06-04T00:54:23.629Z,1009.3
2017-06-04T00:55:26.686Z,1009.3
2017-06-04T00:56:29.496Z,1009.4
2017-06-04T00:57:32.180Z,1009.3
2017-06-04T00:58:34.985Z,1009.4
2017-06-04T00:59:37.789Z,1009.3
2017-06-04T01:00:40.844Z,1009.3
2017-06-04T01:01:43.531Z,1009.3
2017-06-04T01:02:46.218Z,1009.3
2017-06-04T01:03:49.023Z,1009.3
2017-06-04T01:04:51.827Z,1009.2
2017-06-04T01:05:54.926Z,1009.2
2017-06-04T01:06:57.227Z,1009.2
2017-06-04T01:08:00.028Z,1009.2
2017-06-04T01:10:05.742Z,1009.2
2017-06-04T01:11:08.798Z,1009.1
2017-06-04T01:13:13.893Z,1009
2017-06-04T01:14:16.695Z,1009
2017-06-04T01:16:22.980Z,1009
2017-06-04T01:17:25.280Z,1009
2017-06-04T01:18:28.084Z,1009
2017-06-04T01:19:30.888Z,1009
2017-06-04T01:20:33.696Z,1009
2017-06-04T01:21:36.748Z,1009
2017-06-04T01:22:39.047Z,1008.9
2017-06-04T01:23:41.849Z,1008.9
2017-06-04T01:24:44.652Z,1008.9
2017-06-04T01:25:47.339Z,1008.9
2017-06-04T01:27:53.359Z,1008.9
2017-06-04T01:28:56.161Z,1008.9
2017-06-04T01:29:58.963Z,1008.9
2017-06-04T01:31:01.772Z,1008.8
2017-06-04T01:32:04.575Z,1008.8
2017-06-04T01:34:09.925Z,1008.8
2017-06-04T01:35:12.726Z,1008.8
2017-06-04T01:36:15.526Z,1008.8
2017-06-04T01:37:18.211Z,1008.8
2017-06-04T01:39:24.230Z,1008.7
2017-06-04T01:41:29.446Z,1008.8
2017-06-04T01:43:35.163Z,1008.8
2017-06-04T01:44:38.219Z,1008.8
2017-06-04T01:45:40.396Z,1008.8
2017-06-04T01:46:43.197Z,1008.9
2017-06-04T01:47:46.379Z,1008.8
2017-06-04T01:48:49.066Z,1008.9
2017-06-04T01:50:55.036Z,1008.8
2017-06-04T01:51:57.216Z,1008.8
2017-06-04T01:55:05.845Z,1008.7
2017-06-04T01:56:08.952Z,1008.8
2017-06-04T01:57:11.131Z,1008.7
2017-06-04T01:58:14.315Z,1008.8
2017-06-04T01:59:16.683Z,1008.8
2017-06-04T02:00:19.487Z,1008.7
2017-06-04T02:01:22.539Z,1008.8
2017-06-04T02:02:25.171Z,1008.8
2017-06-04T02:04:30.888Z,1008.8
2017-06-04T02:05:33.692Z,1008.7
2017-06-04T02:06:36.802Z,1008.7
2017-06-04T02:07:39.102Z,1008.7
2017-06-04T02:10:47.731Z,1008.7
2017-06-04T02:11:50.867Z,1008.7
2017-06-04T02:12:53.174Z,1008.7
2017-06-04T02:13:56.047Z,1008.8
2017-06-04T02:14:58.847Z,1008.8
2017-06-04T02:17:04.311Z,1008.8
2017-06-04T02:18:07.112Z,1008.8
2017-06-04T02:19:09.908Z,1008.8
2017-06-04T02:20:12.715Z,1008.8
2017-06-04T02:22:18.683Z,1008.8
2017-06-04T02:23:20.979Z,1008.9
2017-06-04T02:24:23.665Z,1008.8
2017-06-04T02:25:26.466Z,1008.8
2017-06-04T02:27:32.309Z,1008.9
2017-06-04T02:28:34.994Z,1008.9
2017-06-04T02:29:37.678Z,1008.9
2017-06-04T02:30:40.481Z,1008.9
2017-06-04T02:31:43.165Z,1008.9
2017-06-04T02:32:46.221Z,1008.9
2017-06-04T02:33:49.028Z,1008.9
2017-06-04T02:34:51.837Z,1008.9
2017-06-04T02:35:54.639Z,1008.9
2017-06-04T02:36:57.448Z,1008.9
2017-06-04T02:38:00.553Z,1008.9
2017-06-04T02:39:02.855Z,1008.9
2017-06-04T02:40:05.657Z,1008.9
2017-06-04T02:41:08.221Z,1008.9
2017-06-04T02:42:11.097Z,1008.9
2017-06-04T02:43:14.202Z,1008.9
2017-06-04T02:46:22.333Z,1009
2017-06-04T02:47:25.141Z,1009
2017-06-04T02:48:28.197Z,1009
2017-06-04T02:49:31.008Z,1009
2017-06-04T02:51:36.222Z,1009.1
2017-06-04T02:52:38.908Z,1009.1
2017-06-04T02:53:41.964Z,1009.1
2017-06-04T02:54:44.765Z,1009.1
2017-06-04T02:55:47.569Z,1009.1
2017-06-04T02:56:50.260Z,1009
2017-06-04T02:59:59.189Z,1009
2017-06-04T03:03:06.821Z,1009
2017-06-04T03:04:09.630Z,1009
2017-06-04T03:05:12.683Z,1008.9
2017-06-04T03:07:18.405Z,1008.9
2017-06-04T03:08:21.091Z,1008.9
2017-06-04T03:09:23.892Z,1008.9
2017-06-04T03:10:26.896Z,1008.9
2017-06-04T03:12:32.120Z,1008.9
2017-06-04T03:13:34.819Z,1008.9
2017-06-04T03:14:37.627Z,1008.9
2017-06-04T03:15:40.634Z,1008.9
2017-06-04T03:16:43.452Z,1008.9
2017-06-04T03:18:49.176Z,1008.9
2017-06-04T03:19:51.484Z,1008.9
2017-06-04T03:20:54.546Z,1008.9
2017-06-04T03:24:02.682Z,1008.9
2017-06-04T03:25:05.489Z,1008.9
2017-06-04T03:26:08.548Z,1008.9
2017-06-04T03:27:11.113Z,1008.9
2017-06-04T03:28:13.797Z,1008.9
2017-06-04T03:31:22.611Z,1008.8
2017-06-04T03:33:27.828Z,1008.8
2017-06-04T03:34:30.630Z,1008.8
2017-06-04T03:35:33.315Z,1008.8
2017-06-04T03:36:36.425Z,1008.8
2017-06-04T03:38:42.149Z,1008.8
2017-06-04T03:40:47.362Z,1008.9
2017-06-04T03:41:50.472Z,1008.8
2017-06-04T03:42:53.282Z,1008.8
2017-06-04T03:43:56.088Z,1008.8
2017-06-04T03:46:01.308Z,1008.8
2017-06-04T03:47:04.372Z,1008.8
2017-06-04T03:48:07.174Z,1008.8
2017-06-04T03:49:09.863Z,1008.8
2017-06-04T03:50:12.672Z,1008.9
2017-06-04T03:52:18.573Z,1008.9
2017-06-04T03:53:20.876Z,1008.9
2017-06-04T03:54:23.688Z,1008.8
2017-06-04T03:55:26.495Z,1008.8
2017-06-04T03:57:32.467Z,1008.8
2017-06-04T03:58:34.770Z,1008.8
2017-06-04T03:59:37.457Z,1008.8
2017-06-04T04:00:40.261Z,1008.8
2017-06-04T04:01:43.451Z,1008.8
2017-06-04T04:02:46.510Z,1008.8
2017-06-04T04:03:48.813Z,1008.8
2017-06-04T04:05:54.529Z,1008.8
2017-06-04T04:06:57.221Z,1008.9
2017-06-04T04:08:00.398Z,1008.8
2017-06-04T04:09:02.703Z,1008.8
2017-06-04T04:10:05.506Z,1008.8
2017-06-04T04:12:11.223Z,1008.8
2017-06-04T04:13:14.096Z,1008.8
2017-06-04T04:17:25.221Z,1008.8
2017-06-04T04:18:28.060Z,1008.8
2017-06-04T04:19:30.865Z,1008.8
2017-06-04T04:22:38.870Z,1008.8
2017-06-04T04:23:41.926Z,1008.7
2017-06-04T04:24:44.732Z,1008.7
2017-06-04T04:25:47.544Z,1008.7
2017-06-04T04:26:50.356Z,1008.7
2017-06-04T04:27:53.167Z,1008.7
2017-06-04T04:28:56.227Z,1008.7
2017-06-04T04:29:58.529Z,1008.7
2017-06-04T04:31:01.329Z,1008.8
2017-06-04T04:32:04.136Z,1008.7
2017-06-04T04:35:12.982Z,1008.7
2017-06-04T04:36:15.287Z,1008.7
2017-06-04T04:37:18.102Z,1008.7
2017-06-04T04:38:20.914Z,1008.7
2017-06-04T04:39:23.722Z,1008.7
2017-06-04T04:40:26.778Z,1008.7
2017-06-04T04:42:31.988Z,1008.7
2017-06-04T04:43:34.797Z,1008.7
2017-06-04T04:44:37.601Z,1008.7
2017-06-04T04:45:40.655Z,1008.7
2017-06-04T04:48:48.741Z,1008.7
2017-06-04T04:49:51.548Z,1008.7
2017-06-04T04:50:54.489Z,1008.7
2017-06-04T04:52:59.703Z,1008.7
2017-06-04T04:54:02.513Z,1008.7
2017-06-04T04:56:08.488Z,1008.7
2017-06-04T04:57:11.306Z,1008.7
2017-06-04T04:59:16.521Z,1008.7
2017-06-04T05:00:19.325Z,1008.8
2017-06-04T05:01:22.432Z,1008.7
2017-06-04T05:02:25.114Z,1008.7
2017-06-04T05:03:27.803Z,1008.7
2017-06-04T05:04:30.490Z,1008.8
2017-06-04T05:07:39.377Z,1008.8
2017-06-04T05:08:41.678Z,1008.7
2017-06-04T05:09:44.478Z,1008.8
2017-06-04T05:10:47.283Z,1008.7
2017-06-04T05:11:50.094Z,1008.8
2017-06-04T05:13:56.116Z,1008.8
2017-06-04T05:14:58.425Z,1008.8
2017-06-04T05:16:01.225Z,1008.8
2017-06-04T05:17:03.992Z,1008.8
2017-06-04T05:19:09.960Z,1008.8
2017-06-04T05:20:12.262Z,1008.8
2017-06-04T05:21:15.066Z,1008.8
2017-06-04T05:22:17.878Z,1008.8
2017-06-04T05:23:20.695Z,1008.7
2017-06-04T05:24:23.833Z,1008.8
2017-06-04T05:25:26.519Z,1008.7
2017-06-04T05:26:29.327Z,1008.8
2017-06-04T05:27:32.013Z,1008.7
2017-06-04T05:28:34.817Z,1008.7
2017-06-04T05:30:40.740Z,1008.7
2017-06-04T05:31:42.926Z,1008.7
2017-06-04T05:32:45.725Z,1008.7
2017-06-04T05:33:48.534Z,1008.6
2017-06-04T05:35:54.517Z,1008.6
2017-06-04T05:40:05.560Z,1008.6
2017-06-04T05:41:08.500Z,1008.6
2017-06-04T05:42:11.306Z,1008.6
2017-06-04T05:43:13.997Z,1008.6
2017-06-04T05:44:16.805Z,1008.6
2017-06-04T05:46:22.272Z,1008.5
2017-06-04T05:48:27.995Z,1008.5
2017-06-04T05:50:33.214Z,1008.4
2017-06-04T05:51:36.273Z,1008.4
2017-06-04T05:52:39.080Z,1008.4
2017-06-04T05:53:41.762Z,1008.4
2017-06-04T05:54:44.566Z,1008.3
2017-06-04T05:55:47.368Z,1008.3
2017-06-04T05:56:50.475Z,1008.2
2017-06-04T05:57:53.157Z,1008.3
2017-06-04T05:58:55.845Z,1008.3
2017-06-04T05:59:58.653Z,1008.2
2017-06-04T06:01:01.457Z,1008.2
2017-06-04T06:02:04.515Z,1008.2
2017-06-04T06:03:06.817Z,1008.3
2017-06-04T06:04:09.618Z,1008.2
2017-06-04T06:06:15.334Z,1008.2
2017-06-04T06:07:18.277Z,1008.2
2017-06-04T06:08:20.962Z,1008.2
2017-06-04T06:09:23.770Z,1008.3
2017-06-04T06:10:26.577Z,1008.2
2017-06-04T06:11:29.381Z,1008.3
2017-06-04T06:13:35.407Z,1008.2
2017-06-04T06:14:37.788Z,1008.3
2017-06-04T06:18:49.131Z,1008.3
2017-06-04T06:19:51.701Z,1008.4
2017-06-04T06:20:54.393Z,1008.4
2017-06-04T06:21:57.201Z,1008.4
2017-06-04T06:23:00.008Z,1008.4
2017-06-04T06:24:03.115Z,1008.4
2017-06-04T06:25:05.447Z,1008.4
2017-06-04T06:26:08.255Z,1008.4
2017-06-04T06:27:11.063Z,1008.5
2017-06-04T06:29:17.085Z,1008.5
2017-06-04T06:30:19.390Z,1008.5
2017-06-04T06:31:22.201Z,1008.5
2017-06-04T06:32:24.885Z,1008.5
2017-06-04T06:33:27.691Z,1008.5
2017-06-04T06:36:36.351Z,1008.5
2017-06-04T06:37:39.160Z,1008.5
2017-06-04T06:39:44.373Z,1008.5
2017-06-04T06:40:47.180Z,1008.5
2017-06-04T06:42:53.148Z,1008.5
2017-06-04T06:43:55.953Z,1008.5
2017-06-04T06:44:58.754Z,1008.5
2017-06-04T06:46:01.143Z,1008.5
2017-06-04T06:47:03.952Z,1008.5
2017-06-04T06:48:07.005Z,1008.5
2017-06-04T06:49:09.699Z,1008.6
2017-06-04T06:50:12.506Z,1008.6
2017-06-04T06:51:15.310Z,1008.6
2017-06-04T06:52:18.114Z,1008.6
2017-06-04T06:53:21.223Z,1008.7
2017-06-04T06:54:23.551Z,1008.6
2017-06-04T06:55:26.356Z,1008.6
2017-06-04T06:56:29.160Z,1008.6
2017-06-04T06:57:31.964Z,1008.5
2017-06-04T06:58:35.361Z,1008.6
2017-06-04T07:01:42.987Z,1008.6
2017-06-04T07:02:45.791Z,1008.6
2017-06-04T07:03:48.851Z,1008.6
2017-06-04T07:04:51.656Z,1008.6
2017-06-04T07:06:56.873Z,1008.6
2017-06-04T07:08:00.060Z,1008.6
2017-06-04T07:09:02.646Z,1008.6
2017-06-04T07:10:05.212Z,1008.6
2017-06-04T07:11:08.405Z,1008.6
2017-06-04T07:12:11.220Z,1008.6
2017-06-04T07:15:19.477Z,1008.6
2017-06-04T07:17:24.696Z,1008.7
2017-06-04T07:18:27.882Z,1008.7
2017-06-04T07:19:30.688Z,1008.7
2017-06-04T07:20:33.507Z,1008.7
2017-06-04T07:21:35.811Z,1008.6
2017-06-04T07:22:38.637Z,1008.6
2017-06-04T07:23:41.828Z,1008.7
2017-06-04T07:24:44.631Z,1008.6
2017-06-04T07:26:50.101Z,1008.7
2017-06-04T07:27:52.917Z,1008.7
2017-06-04T07:28:55.726Z,1008.7
2017-06-04T07:29:58.534Z,1008.7
2017-06-04T07:31:01.337Z,1008.6
2017-06-04T07:35:12.648Z,1008.7
2017-06-04T07:36:15.026Z,1008.8
2017-06-04T07:41:29.242Z,1008.7
2017-06-04T07:42:31.543Z,1008.8
2017-06-04T07:43:34.614Z,1008.7
2017-06-04T07:44:37.425Z,1008.7
2017-06-04T07:46:43.276Z,1008.7
2017-06-04T07:48:48.376Z,1008.7
2017-06-04T07:49:51.181Z,1008.7
2017-06-04T07:50:53.871Z,1008.7
2017-06-04T07:51:56.928Z,1008.7
2017-06-04T07:52:59.731Z,1008.7
2017-06-04T07:54:02.296Z,1008.7
2017-06-04T07:55:05.105Z,1008.7
2017-06-04T07:56:07.916Z,1008.7
2017-06-04T07:57:11.027Z,1008.7
2017-06-04T07:58:13.336Z,1008.7
2017-06-04T08:00:19.051Z,1008.8
2017-06-04T08:02:24.514Z,1008.7
2017-06-04T08:03:27.466Z,1008.8
2017-06-04T08:04:30.277Z,1008.8
2017-06-04T08:06:35.378Z,1008.9
2017-06-04T08:07:38.441Z,1008.9
2017-06-04T08:08:41.251Z,1008.9
2017-06-04T08:09:43.933Z,1008.9
2017-06-04T08:10:46.738Z,1008.9
2017-06-04T08:11:49.548Z,1008.9
2017-06-04T08:12:52.556Z,1009
2017-06-04T08:13:54.856Z,1009
2017-06-04T08:14:57.537Z,1009
2017-06-04T08:17:03.255Z,1009
2017-06-04T08:19:09.282Z,1009
2017-06-04T08:20:11.586Z,1009.1
2017-06-04T08:21:14.399Z,1009.1
2017-06-04T08:22:17.206Z,1009.1
2017-06-04T08:24:22.677Z,1009.2
2017-06-04T08:25:25.481Z,1009.2
2017-06-04T08:26:28.291Z,1009.2
2017-06-04T08:27:30.597Z,1009.3
2017-06-04T08:28:33.788Z,1009.2
2017-06-04T08:29:36.844Z,1009.3
2017-06-04T08:30:39.038Z,1009.3
2017-06-04T08:31:41.841Z,1009.4
2017-06-04T08:32:44.527Z,1009.4
2017-06-04T08:33:47.332Z,1009.5
2017-06-04T08:34:50.319Z,1009.5
2017-06-04T08:35:53.129Z,1009.5
2017-06-04T08:36:55.934Z,1009.5
2017-06-04T08:37:58.239Z,1009.4
2017-06-04T08:39:01.047Z,1009.5
2017-06-04T08:40:04.156Z,1009.6
2017-06-04T08:41:06.964Z,1009.6
2017-06-04T08:42:09.383Z,1009.6
2017-06-04T08:44:15.097Z,1009.6
2017-06-04T08:45:18.066Z,1009.6
2017-06-04T08:46:20.775Z,1009.6
2017-06-04T08:49:29.007Z,1009.7
2017-06-04T08:51:34.428Z,1009.7
2017-06-04T08:52:37.395Z,1009.7
2017-06-04T08:53:39.676Z,1009.8
2017-06-04T08:57:51.086Z,1009.9
2017-06-04T08:58:54.012Z,1009.8
2017-06-04T09:00:59.259Z,1009.9
2017-06-04T09:02:01.874Z,1009.8
2017-06-04T09:03:04.849Z,1009.9
2017-06-04T09:04:07.579Z,1009.9
2017-06-04T09:05:34.180Z,1009.9
2017-06-04T09:08:18.840Z,1009.9
2017-06-04T09:09:21.142Z,1010.1
2017-06-04T09:10:23.954Z,1009.9
2017-06-04T09:11:26.758Z,1010.1
2017-06-04T09:12:29.569Z,1010.1
2017-06-04T09:14:35.591Z,1010.1
2017-06-04T09:15:37.908Z,1010.2
2017-06-04T09:16:40.718Z,1010.2
2017-06-04T09:17:43.523Z,1010.3
2017-06-04T09:20:51.908Z,1010.4
2017-06-04T09:22:57.152Z,1010.4
2017-06-04T09:23:59.841Z,1010.4
2017-06-04T09:25:02.645Z,1010.4
2017-06-04T09:26:06.084Z,1010.4
2017-06-04T09:29:13.707Z,1010.5
2017-06-04T09:30:16.777Z,1010.6
2017-06-04T09:31:19.844Z,1010.5
2017-06-04T09:32:22.150Z,1010.6
2017-06-04T09:33:24.957Z,1010.6
2017-06-04T09:36:33.338Z,1010.7
2017-06-04T09:37:35.902Z,1010.8
2017-06-04T09:38:38.704Z,1010.8
2017-06-04T09:40:44.421Z,1010.8
2017-06-04T09:41:47.526Z,1010.8
2017-06-04T09:42:49.832Z,1010.9
2017-06-04T09:43:52.642Z,1010.9
2017-06-04T09:45:58.241Z,1011
2017-06-04T09:49:06.668Z,1011
2017-06-04T09:51:11.891Z,1011.1
2017-06-04T09:52:14.719Z,1011
2017-06-04T09:53:17.522Z,1011
2017-06-04T09:55:23.038Z,1011.1
2017-06-04T09:56:25.846Z,1011.1
2017-06-04T09:57:28.648Z,1011.1
2017-06-04T09:59:33.860Z,1011.1
2017-06-04T10:03:45.152Z,1011.2
2017-06-04T10:04:47.958Z,1011.2
2017-06-04T10:06:53.173Z,1011.2
2017-06-04T10:07:55.982Z,1011.2
2017-06-04T10:08:59.036Z,1011.3
2017-06-04T10:12:07.164Z,1011.3
2017-06-04T10:13:09.784Z,1011.3
2017-06-04T10:14:12.888Z,1011.3
2017-06-04T10:16:18.102Z,1011.4
2017-06-04T10:17:20.910Z,1011.4
2017-06-04T10:18:23.719Z,1011.4
2017-06-04T10:19:26.660Z,1011.4
2017-06-04T10:21:31.875Z,1011.5
2017-06-04T10:22:34.678Z,1011.5
2017-06-04T10:23:37.482Z,1011.5
2017-06-04T10:24:40.424Z,1011.5
2017-06-04T10:26:45.642Z,1011.6
2017-06-04T10:27:48.447Z,1011.5
2017-06-04T10:29:54.417Z,1011.6
2017-06-04T10:30:56.715Z,1011.6
2017-06-04T10:31:59.909Z,1011.6
2017-06-04T10:33:02.716Z,1011.6
2017-06-04T10:34:05.021Z,1011.6
2017-06-04T10:35:08.083Z,1011.6
2017-06-04T10:36:10.773Z,1011.7
2017-06-04T10:37:13.583Z,1011.7
2017-06-04T10:38:16.387Z,1011.7
2017-06-04T10:39:19.214Z,1011.7
2017-06-04T10:40:22.153Z,1011.7
2017-06-04T10:41:24.457Z,1011.8
2017-06-04T10:43:30.062Z,1011.8
2017-06-04T10:44:32.865Z,1011.8
2017-06-04T10:45:35.994Z,1011.7
2017-06-04T10:46:38.298Z,1011.8
2017-06-04T10:48:43.894Z,1011.8
2017-06-04T10:49:46.701Z,1011.8
2017-06-04T10:50:49.808Z,1011.9
2017-06-04T10:52:55.023Z,1011.9
2017-06-04T10:53:57.729Z,1011.9
2017-06-04T10:55:00.497Z,1011.9
2017-06-04T10:57:06.519Z,1011.9
2017-06-04T10:59:11.736Z,1011.9
2017-06-04T11:00:14.543Z,1011.9
2017-06-04T11:02:20.011Z,1012.1
2017-06-04T11:03:22.817Z,1012.1
2017-06-04T11:04:25.574Z,1012.1
2017-06-04T11:05:28.382Z,1012.1
2017-06-04T11:06:31.066Z,1012.3
2017-06-04T11:07:34.058Z,1012.2
2017-06-04T11:08:36.359Z,1012.2
2017-06-04T11:10:41.959Z,1012.3
2017-06-04T11:11:44.766Z,1012.3
2017-06-04T11:12:47.702Z,1012.4
2017-06-04T11:13:50.512Z,1012.4
2017-06-04T11:14:53.320Z,1012.4
2017-06-04T11:15:56.001Z,1012.4
2017-06-04T11:16:58.685Z,1012.4
2017-06-04T11:18:01.790Z,1012.4
2017-06-04T11:19:04.090Z,1012.5
2017-06-04T11:20:06.776Z,1012.5
2017-06-04T11:21:09.975Z,1012.5
2017-06-04T11:22:12.275Z,1012.5
2017-06-04T11:24:18.177Z,1012.6
2017-06-04T11:26:23.392Z,1012.6
2017-06-04T11:29:32.210Z,1012.6
2017-06-04T11:32:39.978Z,1012.7
2017-06-04T11:33:42.674Z,1012.7
2017-06-04T11:34:45.733Z,1012.7
2017-06-04T11:35:48.537Z,1012.7
2017-06-04T11:36:51.345Z,1012.7
2017-06-04T11:37:54.146Z,1012.7
2017-06-04T11:38:56.832Z,1012.8
2017-06-04T11:39:59.894Z,1012.8
2017-06-04T11:41:02.073Z,1012.8
2017-06-04T11:42:04.908Z,1012.9
2017-06-04T11:43:07.594Z,1012.9
2017-06-04T11:44:10.398Z,1012.9
2017-06-04T11:45:13.455Z,1012.9
2017-06-04T11:46:16.259Z,1012.8
2017-06-04T11:47:18.589Z,1012.9
2017-06-04T11:48:21.396Z,1012.9
2017-06-04T11:49:24.077Z,1013
2017-06-04T11:50:27.190Z,1013
2017-06-04T11:53:35.204Z,1012.9
2017-06-04T11:54:38.008Z,1012.9
2017-06-04T11:55:41.063Z,1012.9
2017-06-04T11:56:43.752Z,1012.9
2017-06-04T11:57:46.556Z,1013
2017-06-04T11:58:48.862Z,1013
2017-06-04T11:59:51.671Z,1013.1
2017-06-04T12:00:54.735Z,1013.1
2017-06-04T12:04:02.863Z,1013.2
2017-06-04T12:05:05.746Z,1013.1
2017-06-04T12:08:14.056Z,1013.2
2017-06-04T12:11:22.189Z,1013.2
2017-06-04T12:12:25.005Z,1013.1
2017-06-04T12:15:33.386Z,1013.2
2017-06-04T12:16:36.188Z,1013.2
2017-06-04T12:17:38.995Z,1013.2
2017-06-04T12:18:41.562Z,1013.2
2017-06-04T12:19:44.371Z,1013.2
2017-06-04T12:20:47.481Z,1013.3
2017-06-04T12:21:49.785Z,1013.3
2017-06-04T12:22:52.474Z,1013.2
2017-06-04T12:23:55.351Z,1013.2
2017-06-04T12:24:58.048Z,1013.2
2017-06-04T12:26:01.111Z,1013.3
2017-06-04T12:27:03.915Z,1013.3
2017-06-04T12:28:06.599Z,1013.2
2017-06-04T12:29:09.402Z,1013.3
2017-06-04T12:30:12.205Z,1013.3
2017-06-04T12:31:15.260Z,1013.3
2017-06-04T12:32:17.566Z,1013.2
2017-06-04T12:33:20.370Z,1013.3
2017-06-04T12:34:23.174Z,1013.3
2017-06-04T12:35:25.980Z,1013.3
2017-06-04T12:36:28.921Z,1013.3
2017-06-04T12:39:37.048Z,1013.4
2017-06-04T12:40:39.885Z,1013.4
2017-06-04T12:41:42.993Z,1013.4
2017-06-04T12:42:45.180Z,1013.5
2017-06-04T12:43:47.984Z,1013.5
2017-06-04T12:45:53.702Z,1013.5
2017-06-04T12:46:56.886Z,1013.5
2017-06-04T12:47:59.187Z,1013.6
2017-06-04T12:50:04.907Z,1013.6
2017-06-04T12:51:07.719Z,1013.6
2017-06-04T12:52:10.708Z,1013.6
2017-06-04T12:53:12.891Z,1013.6
2017-06-04T12:54:15.694Z,1013.7
2017-06-04T12:55:18.768Z,1013.5
2017-06-04T12:56:21.580Z,1013.6
2017-06-04T12:57:24.639Z,1013.7
2017-06-04T12:58:26.941Z,1013.7
2017-06-04T12:59:29.749Z,1013.7
2017-06-04T13:00:32.435Z,1013.6
2017-06-04T13:01:35.247Z,1013.7
2017-06-04T13:02:38.302Z,1013.6
2017-06-04T13:03:40.636Z,1013.7
2017-06-04T13:04:43.441Z,1013.7
2017-06-04T13:05:46.249Z,1013.7
2017-06-04T13:06:48.932Z,1013.8
2017-06-04T13:07:52.038Z,1013.7
2017-06-04T13:08:54.841Z,1013.7
2017-06-04T13:11:00.445Z,1013.8
2017-06-04T13:12:03.251Z,1013.8
2017-06-04T13:14:08.728Z,1013.9
2017-06-04T13:16:14.329Z,1013.9
2017-06-04T13:18:19.542Z,1013.9
2017-06-04T13:19:22.597Z,1014
2017-06-04T13:21:27.806Z,1013.9
2017-06-04T13:22:30.617Z,1014
2017-06-04T13:23:33.422Z,1014
2017-06-04T13:24:36.435Z,1014.1
2017-06-04T13:25:39.123Z,1014.1
2017-06-04T13:26:41.927Z,1014.1
2017-06-04T13:27:44.733Z,1014.1
2017-06-04T13:28:47.545Z,1014.1
2017-06-04T13:29:50.413Z,1014.1
2017-06-04T13:30:53.216Z,1014.1
2017-06-04T13:31:55.517Z,1014.1
2017-06-04T13:32:58.320Z,1014.1
2017-06-04T13:34:01.131Z,1014.1
2017-06-04T13:35:04.196Z,1014.1
2017-06-04T13:37:09.413Z,1014.1
2017-06-04T13:38:12.220Z,1014.1
2017-06-04T13:40:18.066Z,1014
2017-06-04T13:43:26.189Z,1014
2017-06-04T13:44:28.994Z,1014
2017-06-04T13:46:34.899Z,1014
2017-06-04T13:47:37.708Z,1014.1
2017-06-04T13:48:40.511Z,1014.1
2017-06-04T13:49:43.320Z,1014
2017-06-04T13:50:45.623Z,1014.1
2017-06-04T13:51:48.678Z,1014.1
2017-06-04T13:52:51.483Z,1014
2017-06-04T13:57:02.773Z,1013.9
2017-06-04T13:58:05.579Z,1013.9
2017-06-04T13:59:08.265Z,1013.9
2017-06-04T14:00:11.069Z,1013.9
2017-06-04T14:01:13.876Z,1014
2017-06-04T14:02:16.888Z,1014
2017-06-04T14:03:19.190Z,1013.9
2017-06-04T14:04:22.264Z,1014.1
2017-06-04T14:05:25.072Z,1014.1
2017-06-04T14:06:27.883Z,1014.1
2017-06-04T14:09:36.274Z,1014.1
2017-06-04T14:10:38.966Z,1014.1
2017-06-04T14:11:41.657Z,1014.1
2017-06-04T14:12:44.464Z,1014.1
2017-06-04T14:13:47.027Z,1014.1
2017-06-04T14:14:50.520Z,1014.1
2017-06-04T14:15:52.699Z,1014.1
2017-06-04T14:17:58.491Z,1014.2
2017-06-04T14:19:01.179Z,1014.2
2017-06-04T14:20:04.291Z,1014.2
2017-06-04T14:21:06.594Z,1014.2
2017-06-04T14:22:09.277Z,1014.2
2017-06-04T14:23:12.081Z,1014.1
2017-06-04T14:25:18.103Z,1014.2
2017-06-04T14:26:20.407Z,1014.2
2017-06-04T14:27:23.596Z,1014.1
2017-06-04T14:29:28.811Z,1014.1
2017-06-04T14:30:31.867Z,1014.2
2017-06-04T14:32:37.081Z,1014.2
2017-06-04T14:33:39.886Z,1014.1
2017-06-04T14:34:42.693Z,1014.2
2017-06-04T14:35:45.750Z,1014.2
2017-06-04T14:36:48.558Z,1014.2
2017-06-04T14:37:51.362Z,1014.2
2017-06-04T14:39:56.837Z,1014.2
2017-06-04T14:42:02.697Z,1014.3
2017-06-04T14:43:05.265Z,1014.2
2017-06-04T14:45:10.489Z,1014.3
2017-06-04T14:46:13.261Z,1014.2
2017-06-04T14:47:16.367Z,1014.3
2017-06-04T14:48:19.174Z,1014.2
2017-06-04T14:49:21.861Z,1014.2
2017-06-04T14:50:24.677Z,1014.2
2017-06-04T14:51:27.244Z,1014.2
2017-06-04T14:52:30.303Z,1014.2
2017-06-04T14:53:33.118Z,1014.2
2017-06-04T14:54:35.810Z,1014.2
2017-06-04T14:56:41.026Z,1014.2
2017-06-04T14:57:44.136Z,1014.2
2017-06-04T14:58:46.946Z,1014.2
2017-06-04T15:00:52.159Z,1014.1
2017-06-04T15:01:55.233Z,1014.2
2017-06-04T15:02:58.288Z,1014.2
2017-06-04T15:04:00.618Z,1014.2
2017-06-04T15:05:03.421Z,1014.2
2017-06-04T15:06:06.226Z,1014.2
2017-06-04T15:07:08.912Z,1014.2
2017-06-04T15:08:11.901Z,1014.2
2017-06-04T15:09:14.701Z,1014.3
2017-06-04T15:10:17.507Z,1014.3
2017-06-04T15:11:20.191Z,1014.2
2017-06-04T15:12:22.997Z,1014.3
2017-06-04T15:16:34.347Z,1014.3
2017-06-04T15:17:37.152Z,1014.3
2017-06-04T15:18:39.455Z,1014.3
2017-06-04T15:20:45.170Z,1014.2
2017-06-04T15:21:48.544Z,1014.3
2017-06-04T15:22:50.852Z,1014.3
2017-06-04T15:23:53.681Z,1014.3
2017-06-04T15:25:59.407Z,1014.2
2017-06-04T15:27:02.352Z,1014.2
2017-06-04T15:28:04.657Z,1014.2
2017-06-04T15:29:07.465Z,1014.2
2017-06-04T15:31:13.181Z,1014.2
2017-06-04T15:32:16.320Z,1014.3
2017-06-04T15:34:21.550Z,1014.2
2017-06-04T15:35:24.113Z,1014.3
2017-06-04T15:37:30.277Z,1014.2
2017-06-04T15:38:32.580Z,1014.2
2017-06-04T15:44:49.779Z,1014.3
2017-06-04T15:47:57.515Z,1014.3
2017-06-04T15:49:00.482Z,1014.3
2017-06-04T15:54:14.386Z,1014.3
2017-06-04T15:56:19.852Z,1014.3
2017-06-04T15:57:30.358Z,1014.3
2017-06-04T16:05:45.285Z,1014.3
2017-06-04T16:08:53.403Z,1014.2
2017-06-04T16:09:57.386Z,1014.4
2017-06-04T16:15:10.415Z,1014.3
2017-06-04T16:17:15.548Z,1014.4
2017-06-04T16:18:18.349Z,1014.4
2017-06-04T16:19:21.154Z,1014.4
2017-06-04T16:20:24.629Z,1014.4
2017-06-04T16:23:32.252Z,1014.4
2017-06-04T16:25:38.209Z,1014.4
2017-06-04T16:26:40.847Z,1014.4
2017-06-04T16:29:49.181Z,1014.3
2017-06-04T16:31:54.825Z,1014.4
2017-06-04T16:32:57.776Z,1014.3
2017-06-04T16:34:00.497Z,1014.3
2017-06-04T16:35:03.218Z,1014.4
2017-06-04T16:36:05.993Z,1014.4
2017-06-04T16:39:14.762Z,1014.4
2017-06-04T16:40:16.977Z,1014.4
2017-06-04T16:41:19.928Z,1014.5
2017-06-04T16:44:28.609Z,1014.4
2017-06-04T16:45:30.836Z,1014.4
2017-06-04T16:46:33.780Z,1014.4
2017-06-04T16:47:36.694Z,1014.4
2017-06-04T16:50:45.278Z,1014.4
2017-06-04T16:51:47.838Z,1014.4
2017-06-04T16:52:50.517Z,1014.4
2017-06-04T16:53:53.141Z,1014.4
2017-06-04T16:54:55.819Z,1014.4
2017-06-04T16:58:04.480Z,1014.4
2017-06-04T16:59:07.245Z,1014.4
2017-06-04T17:00:09.917Z,1014.4
2017-06-04T17:01:12.596Z,1014.4
2017-06-04T17:02:15.478Z,1014.4
2017-06-04T17:03:18.413Z,1014.4
2017-06-04T17:04:20.910Z,1014.4
2017-06-04T17:05:23.666Z,1014.4
2017-06-04T17:07:29.385Z,1014.5
2017-06-04T17:08:32.451Z,1014.5
2017-06-04T17:10:37.857Z,1014.5
2017-06-04T17:12:43.423Z,1014.5
2017-06-04T17:13:46.525Z,1014.5
2017-06-04T17:15:51.656Z,1014.5
2017-06-04T17:17:57.202Z,1014.4
2017-06-04T17:20:03.052Z,1014.4
2017-06-04T17:21:05.735Z,1014.5
2017-06-04T17:23:10.945Z,1014.5
2017-06-04T17:24:13.749Z,1014.5
2017-06-04T17:25:16.806Z,1014.5
2017-06-04T17:26:19.611Z,1014.5
2017-06-04T17:28:25.210Z,1014.4
2017-06-04T17:29:28.020Z,1014.4
2017-06-04T17:30:31.130Z,1014.4
2017-06-04T17:31:33.432Z,1014.4
2017-06-04T17:32:36.238Z,1014.4